Time;durP1;ratioP1;P1;durP2;ratioP2;P2;SDS_P1;SDS_P2;PMS_P1;PMS_P2;Temp;Humidity;BMP_temperature;BMP_pressure;BME280_temperature;BME280_humidity;BME280_pressure;Samples;Min_cycle;Max_cycle;Signal;HPM_P1;HPM_P2
2021/06/12 00:00:18;;;;;;;15.15;13.85;;;;;;;;;;5069749;28;20219;-58
2021/06/12 00:02:44;;;;;;;15.13;13.83;;;;;;;;;;5069353;28;20171;-58
2021/06/12 00:05:09;;;;;;;15.03;13.80;;;;;;;;;;5069021;28;20611;-58
2021/06/12 00:07:35;;;;;;;14.60;13.40;;;;;;;;;;5069510;28;20175;-58
2021/06/12 00:10:00;;;;;;;14.87;13.80;;;;;;;;;;5069267;28;20190;-58
2021/06/12 00:12:26;;;;;;;14.47;13.27;;;;;;;;;;5068352;28;20230;-58
2021/06/12 00:14:51;;;;;;;14.83;13.83;;;;;;;;;;5067241;28;20175;-58
2021/06/12 00:17:16;;;;;;;15.37;14.27;;;;;;;;;;5069193;28;20175;-59
2021/06/12 00:19:41;;;;;;;14.97;13.97;;;;;;;;;;5068993;28;20175;-58
2021/06/12 00:22:06;;;;;;;15.23;14.23;;;;;;;;;;5069413;28;20178;-58
2021/06/12 00:24:31;;;;;;;15.67;14.57;;;;;;;;;;5068409;28;20187;-58
2021/06/12 00:26:57;;;;;;;15.80;14.67;;;;;;;;;;5069390;28;20183;-58
2021/06/12 00:29:22;;;;;;;13.80;12.70;;;;;;;;;;5069394;28;20742;-59
2021/06/12 00:31:47;;;;;;;14.88;13.82;;;;;;;;;;5069136;28;20179;-59
2021/06/12 00:34:12;;;;;;;14.73;13.70;;;;;;;;;;5068761;28;20242;-58
2021/06/12 00:36:37;;;;;;;13.88;12.73;;;;;;;;;;5069151;28;20279;-59
2021/06/12 00:39:03;;;;;;;14.50;13.50;;;;;;;;;;5068285;28;20779;-58
2021/06/12 00:41:28;;;;;;;14.17;13.17;;;;;;;;;;5069203;28;20163;-58
2021/06/12 00:43:53;;;;;;;15.20;14.00;;;;;;;;;;5068346;28;20193;-58
2021/06/12 00:46:19;;;;;;;15.03;13.93;;;;;;;;;;5069168;28;20699;-59
2021/06/12 00:48:45;;;;;;;13.87;12.83;;;;;;;;;;5067723;28;20223;-58
2021/06/12 00:51:10;;;;;;;14.13;13.13;;;;;;;;;;5068348;28;20190;-58
2021/06/12 00:53:41;;;;;;;14.17;13.17;;;;;;;;;;5068382;28;20728;-58
2021/06/12 00:56:13;;;;;;;14.83;13.90;;;;;;;;;;5068772;28;20183;-59
2021/06/12 00:58:42;;;;;;;14.10;13.20;;;;;;;;;;5068627;28;20613;-59
2021/06/12 01:01:11;;;;;;;14.40;13.40;;;;;;;;;;5067331;28;20605;-59
2021/06/12 01:03:39;;;;;;;13.73;12.83;;;;;;;;;;5067435;28;20637;-59
2021/06/12 01:06:04;;;;;;;12.47;11.57;;;;;;;;;;5064799;28;20599;-59
2021/06/12 01:08:29;;;;;;;13.47;12.57;;;;;;;;;;5067440;28;20954;-59
2021/06/12 01:10:55;;;;;;;12.23;11.37;;;;;;;;;;5067785;28;20227;-58
2021/06/12 01:13:24;;;;;;;13.33;12.43;;;;;;;;;;5067413;28;20218;-58
2021/06/12 01:15:51;;;;;;;13.03;11.70;;;;;;;;;;5068045;28;20187;-59
2021/06/12 01:18:18;;;;;;;14.10;13.20;;;;;;;;;;5068311;28;20601;-61
2021/06/12 01:21:02;;;;;;;11.80;11.00;;;;;;;;;;5068346;28;20593;-58
2021/06/12 01:23:45;;;;;;;13.60;12.50;;;;;;;;;;5067279;28;21200;-58
2021/06/12 01:26:33;;;;;;;12.87;11.97;;;;;;;;;;5067402;28;20593;-58
2021/06/12 01:29:17;;;;;;;12.57;11.77;;;;;;;;;;5067500;28;20684;-58
2021/06/12 01:31:42;;;;;;;13.03;12.13;;;;;;;;;;5067064;28;20709;-59
2021/06/12 01:34:07;;;;;;;14.33;13.10;;;;;;;;;;5067678;28;21277;-58
2021/06/12 01:36:33;;;;;;;13.13;12.17;;;;;;;;;;5067122;28;20308;-59
2021/06/12 01:38:59;;;;;;;12.40;11.30;;;;;;;;;;5066661;28;20166;-58
2021/06/12 01:41:25;;;;;;;12.50;11.40;;;;;;;;;;5067787;28;20175;-59
2021/06/12 01:43:51;;;;;;;12.30;11.40;;;;;;;;;;5067351;28;20741;-59
2021/06/12 01:46:17;;;;;;;12.73;11.83;;;;;;;;;;5067077;28;21150;-58
2021/06/12 01:48:43;;;;;;;12.40;11.60;;;;;;;;;;5067316;28;20611;-59
2021/06/12 01:51:09;;;;;;;12.50;11.63;;;;;;;;;;5067038;28;20661;-58
2021/06/12 01:53:35;;;;;;;12.23;11.43;;;;;;;;;;5067405;28;20645;-58
2021/06/12 01:56:02;;;;;;;13.03;12.13;;;;;;;;;;5066778;28;20416;-58
2021/06/12 01:58:28;;;;;;;13.30;12.40;;;;;;;;;;5066764;28;20582;-58
2021/06/12 02:00:54;;;;;;;13.00;12.10;;;;;;;;;;5067101;28;20660;-59
2021/06/12 02:03:19;;;;;;;13.57;12.63;;;;;;;;;;5067314;28;20278;-58
2021/06/12 02:05:45;;;;;;;14.40;13.40;;;;;;;;;;5067334;28;20233;-58
2021/06/12 02:08:12;;;;;;;14.20;13.20;;;;;;;;;;5066838;28;20622;-58
2021/06/12 02:10:38;;;;;;;15.10;14.10;;;;;;;;;;5067075;28;20645;-58
2021/06/12 02:13:03;;;;;;;14.73;13.73;;;;;;;;;;5066151;28;20992;-58
2021/06/12 02:15:29;;;;;;;13.87;12.97;;;;;;;;;;5066662;28;20232;-58
2021/06/12 02:18:04;;;;;;;15.80;14.63;;;;;;;;;;5067011;28;20218;-58
2021/06/12 02:20:30;;;;;;;12.70;11.90;;;;;;;;;;5066499;28;20591;-59
2021/06/12 02:22:56;;;;;;;15.30;14.20;;;;;;;;;;5066465;28;20605;-59
2021/06/12 02:25:21;;;;;;;14.00;13.00;;;;;;;;;;5066260;28;20603;-58
2021/06/12 02:27:57;;;;;;;14.10;13.20;;;;;;;;;;5066847;28;20232;-58
2021/06/12 02:30:24;;;;;;;14.27;13.30;;;;;;;;;;5066147;28;20192;-58
2021/06/12 02:32:52;;;;;;;15.93;14.83;;;;;;;;;;5066823;28;20679;-59
2021/06/12 02:35:18;;;;;;;14.50;13.50;;;;;;;;;;5067037;28;20636;-58
2021/06/12 02:37:44;;;;;;;15.10;14.10;;;;;;;;;;5066595;28;20659;-57
2021/06/12 02:40:09;;;;;;;14.70;13.73;;;;;;;;;;5065916;28;20711;-57
2021/06/12 02:42:34;;;;;;;14.97;13.70;;;;;;;;;;5066162;28;20619;-57
2021/06/12 02:45:00;;;;;;;15.10;14.10;;;;;;;;;;5066826;28;20197;-57
2021/06/12 02:47:27;;;;;;;16.00;14.90;;;;;;;;;;5067011;28;20205;-57
2021/06/12 02:49:54;;;;;;;16.27;14.93;;;;;;;;;;5065664;28;20664;-58
2021/06/12 02:52:22;;;;;;;15.80;14.70;;;;;;;;;;5066592;28;20642;-58
2021/06/12 02:54:47;;;;;;;15.10;14.10;;;;;;;;;;5066279;28;20612;-58
2021/06/12 02:57:13;;;;;;;15.47;14.37;;;;;;;;;;5067138;28;20630;-58
2021/06/12 02:59:40;;;;;;;14.30;13.40;;;;;;;;;;5065827;28;20171;-57
2021/06/12 03:02:07;;;;;;;15.23;14.23;;;;;;;;;;5066618;28;20760;-58
2021/06/12 03:04:34;;;;;;;13.90;12.80;;;;;;;;;;5064621;28;20639;-58
2021/06/12 03:07:01;;;;;;;14.53;13.53;;;;;;;;;;5066310;28;21248;-58
2021/06/12 03:09:28;;;;;;;15.60;14.50;;;;;;;;;;5066180;28;20619;-58
2021/06/12 03:11:53;;;;;;;15.83;14.80;;;;;;;;;;5066569;28;20787;-58
2021/06/12 03:14:19;;;;;;;16.17;14.50;;;;;;;;;;5066568;28;20708;-58
2021/06/12 03:16:46;;;;;;;15.30;14.30;;;;;;;;;;5066656;28;20198;-58
2021/06/12 03:19:12;;;;;;;14.83;13.73;;;;;;;;;;5065583;28;20268;-58
2021/06/12 03:21:38;;;;;;;16.83;15.23;;;;;;;;;;5066438;28;20608;-58
2021/06/12 03:24:04;;;;;;;15.43;14.30;;;;;;;;;;5065677;28;20687;-57
2021/06/12 03:26:31;;;;;;;15.93;14.80;;;;;;;;;;5067763;28;20181;-58
2021/06/12 03:28:56;;;;;;;15.47;14.27;;;;;;;;;;5069477;28;20962;-58
2021/06/12 03:31:21;;;;;;;15.13;13.90;;;;;;;;;;5070636;28;20611;-58
2021/06/12 03:33:46;;;;;;;16.20;14.90;;;;;;;;;;5069554;28;20293;-58
2021/06/12 03:36:12;;;;;;;15.10;14.00;;;;;;;;;;5069862;28;20194;-59
2021/06/12 03:38:37;;;;;;;15.87;14.77;;;;;;;;;;5069086;28;20257;-58
2021/06/12 03:41:04;;;;;;;15.70;14.50;;;;;;;;;;5069594;28;20174;-59
2021/06/12 03:43:29;;;;;;;16.20;14.90;;;;;;;;;;5069859;28;20702;-58
2021/06/12 03:45:56;;;;;;;17.13;15.83;;;;;;;;;;5069293;28;20597;-57
2021/06/12 03:48:22;;;;;;;15.80;14.43;;;;;;;;;;5069951;28;20183;-57
2021/06/12 03:50:49;;;;;;;15.57;14.57;;;;;;;;;;5068267;28;20603;-58
2021/06/12 03:53:14;;;;;;;15.50;14.50;;;;;;;;;;5068985;28;20690;-57
2021/06/12 03:55:40;;;;;;;15.60;14.57;;;;;;;;;;5069596;28;20595;-57
2021/06/12 03:58:05;;;;;;;15.90;14.60;;;;;;;;;;5069410;28;20708;-58
2021/06/12 04:00:31;;;;;;;13.40;12.50;;;;;;;;;;5068830;28;20277;-57
2021/06/12 04:02:56;;;;;;;15.10;14.00;;;;;;;;;;5069475;28;20275;-58
2021/06/12 04:05:21;;;;;;;15.02;14.13;;;;;;;;;;5069527;28;20265;-58
2021/06/12 04:07:46;;;;;;;14.70;13.50;;;;;;;;;;5069018;28;20177;-58
2021/06/12 04:10:12;;;;;;;15.15;14.05;;;;;;;;;;5068521;28;20684;-58
2021/06/12 04:12:37;;;;;;;16.37;15.27;;;;;;;;;;5069465;28;20217;-58
2021/06/12 04:15:03;;;;;;;16.80;15.60;;;;;;;;;;5069187;28;20523;-58
2021/06/12 04:17:28;;;;;;;15.90;14.80;;;;;;;;;;5068653;28;20182;-58
2021/06/12 04:19:53;;;;;;;16.10;15.10;;;;;;;;;;5068256;28;20609;-59
2021/06/12 04:22:18;;;;;;;15.23;14.03;;;;;;;;;;5068807;28;20373;-58
2021/06/12 04:24:44;;;;;;;15.33;14.13;;;;;;;;;;5068091;28;20203;-58
2021/06/12 04:27:09;;;;;;;15.57;14.47;;;;;;;;;;5068259;28;20176;-58
2021/06/12 04:29:34;;;;;;;15.30;14.20;;;;;;;;;;5066662;28;20173;-58
2021/06/12 04:32:00;;;;;;;16.10;15.00;;;;;;;;;;5065199;28;20202;-58
2021/06/12 04:34:25;;;;;;;17.20;16.03;;;;;;;;;;5066131;28;20178;-59
2021/06/12 04:36:50;;;;;;;15.30;14.30;;;;;;;;;;5068675;28;20178;-59
2021/06/12 04:39:15;;;;;;;15.33;14.33;;;;;;;;;;5067611;28;20760;-58
2021/06/12 04:41:41;;;;;;;15.60;14.50;;;;;;;;;;5068131;28;20178;-58
2021/06/12 04:44:06;;;;;;;14.70;13.70;;;;;;;;;;5068525;28;20667;-58
2021/06/12 04:46:31;;;;;;;15.23;13.80;;;;;;;;;;5067317;28;20176;-58
2021/06/12 04:48:56;;;;;;;15.10;14.10;;;;;;;;;;5068214;28;20179;-58
2021/06/12 04:51:21;;;;;;;14.77;13.68;;;;;;;;;;5067752;28;20268;-58
2021/06/12 04:53:46;;;;;;;13.80;12.90;;;;;;;;;;5068214;28;20191;-58
2021/06/12 04:56:12;;;;;;;15.53;14.43;;;;;;;;;;5068543;28;20199;-58
2021/06/12 04:58:37;;;;;;;14.60;13.50;;;;;;;;;;5069118;28;20258;-58
2021/06/12 05:01:02;;;;;;;14.37;13.37;;;;;;;;;;5067331;28;20390;-59
2021/06/12 05:03:27;;;;;;;13.53;12.50;;;;;;;;;;5067400;28;20205;-60
2021/06/12 05:05:53;;;;;;;14.80;13.83;;;;;;;;;;5066721;28;20706;-59
2021/06/12 05:08:18;;;;;;;14.10;13.00;;;;;;;;;;5064179;28;20184;-60
2021/06/12 05:10:43;;;;;;;13.43;12.50;;;;;;;;;;5063494;28;20627;-59
2021/06/12 05:13:09;;;;;;;12.63;11.83;;;;;;;;;;5058969;28;20586;-59
2021/06/12 05:15:34;;;;;;;13.70;12.80;;;;;;;;;;5062079;28;20171;-58
2021/06/12 05:18:03;;;;;;;14.60;13.20;;;;;;;;;;5061253;28;20228;-59
2021/06/12 05:20:29;;;;;;;14.10;12.93;;;;;;;;;;5058562;28;20192;-59
2021/06/12 05:22:54;;;;;;;14.30;13.20;;;;;;;;;;5065760;28;21142;-59
2021/06/12 05:25:19;;;;;;;13.77;12.90;;;;;;;;;;5066237;28;20262;-59
2021/06/12 05:27:44;;;;;;;13.37;12.47;;;;;;;;;;5060042;28;20804;-59
2021/06/12 05:30:10;;;;;;;12.80;11.93;;;;;;;;;;5062362;28;20264;-59
2021/06/12 05:32:35;;;;;;;13.37;12.30;;;;;;;;;;5061267;28;20692;-59
2021/06/12 05:35:01;;;;;;;13.52;12.63;;;;;;;;;;5056958;28;20267;-59
2021/06/12 05:37:26;;;;;;;15.17;14.10;;;;;;;;;;5063308;28;20170;-59
2021/06/12 05:39:52;;;;;;;15.70;14.50;;;;;;;;;;5061490;28;20855;-59
2021/06/12 05:42:17;;;;;;;14.77;13.68;;;;;;;;;;5059913;28;20171;-58
2021/06/12 05:44:42;;;;;;;13.73;12.82;;;;;;;;;;5059599;28;20183;-58
2021/06/12 05:47:07;;;;;;;13.77;12.77;;;;;;;;;;5062195;28;20660;-58
2021/06/12 05:49:32;;;;;;;14.13;13.23;;;;;;;;;;5062076;28;20189;-58
2021/06/12 05:51:57;;;;;;;14.50;13.07;;;;;;;;;;5059230;28;20184;-58
2021/06/12 05:54:23;;;;;;;14.15;13.25;;;;;;;;;;5056799;28;20177;-58
2021/06/12 05:56:48;;;;;;;13.97;13.07;;;;;;;;;;5065745;28;20612;-58
2021/06/12 05:59:13;;;;;;;12.90;12.00;;;;;;;;;;5067764;28;20178;-58
2021/06/12 06:01:38;;;;;;;13.77;12.73;;;;;;;;;;5067231;28;20207;-59
2021/06/12 06:04:03;;;;;;;13.55;12.57;;;;;;;;;;5061836;28;20211;-58
2021/06/12 06:06:28;;;;;;;13.50;12.60;;;;;;;;;;5062603;28;20210;-58
2021/06/12 06:08:54;;;;;;;13.60;12.47;;;;;;;;;;5063917;28;20243;-58
2021/06/12 06:11:19;;;;;;;14.50;13.00;;;;;;;;;;5067447;28;20222;-58
2021/06/12 06:13:45;;;;;;;13.13;12.10;;;;;;;;;;5062801;28;20219;-59
2021/06/12 06:16:10;;;;;;;11.77;11.07;;;;;;;;;;5064206;28;20189;-59
2021/06/12 06:18:36;;;;;;;12.10;11.20;;;;;;;;;;5066511;28;20183;-59
2021/06/12 06:21:01;;;;;;;11.13;10.43;;;;;;;;;;5066910;28;20177;-59
2021/06/12 06:23:27;;;;;;;11.80;11.00;;;;;;;;;;5065817;28;20171;-59
2021/06/12 06:25:52;;;;;;;10.05;9.35;;;;;;;;;;5063345;28;20256;-59
2021/06/12 06:28:17;;;;;;;10.37;9.77;;;;;;;;;;5066448;28;20193;-59
2021/06/12 06:30:43;;;;;;;11.60;10.80;;;;;;;;;;5067087;28;20177;-59
2021/06/12 06:33:08;;;;;;;10.50;9.80;;;;;;;;;;5065728;28;20733;-59
2021/06/12 06:35:33;;;;;;;11.07;10.37;;;;;;;;;;5066663;28;20244;-59
2021/06/12 06:37:59;;;;;;;11.50;10.80;;;;;;;;;;5067225;28;20184;-59
2021/06/12 06:40:24;;;;;;;11.03;10.30;;;;;;;;;;5061522;28;20180;-59
2021/06/12 06:42:49;;;;;;;11.20;10.40;;;;;;;;;;5061567;28;20190;-59
2021/06/12 06:45:14;;;;;;;11.33;10.43;;;;;;;;;;5060910;28;20177;-59
2021/06/12 06:47:40;;;;;;;9.77;9.07;;;;;;;;;;5057768;28;20558;-59
2021/06/12 06:50:06;;;;;;;10.40;9.30;;;;;;;;;;5060862;28;20190;-59
2021/06/12 06:52:31;;;;;;;9.50;8.70;;;;;;;;;;5060648;28;20202;-59
2021/06/12 06:54:57;;;;;;;8.20;7.70;;;;;;;;;;5062986;28;21014;-59
2021/06/12 06:57:22;;;;;;;9.20;8.60;;;;;;;;;;5062492;28;20181;-58
2021/06/12 06:59:47;;;;;;;8.75;8.15;;;;;;;;;;5064324;28;20178;-59
2021/06/12 07:02:12;;;;;;;9.47;8.87;;;;;;;;;;5068094;28;20174;-59
2021/06/12 07:04:38;;;;;;;9.70;9.10;;;;;;;;;;5063838;28;20202;-59
2021/06/12 07:07:04;;;;;;;8.07;7.57;;;;;;;;;;5062100;28;20423;-58
2021/06/12 07:09:29;;;;;;;7.63;7.23;;;;;;;;;;5065386;28;20187;-59
2021/06/12 07:11:56;;;;;;;7.37;6.77;;;;;;;;;;5063071;28;20626;-58
2021/06/12 07:14:21;;;;;;;7.13;6.63;;;;;;;;;;5065512;28;20164;-59
2021/06/12 07:16:46;;;;;;;10.10;9.30;;;;;;;;;;5061802;28;20589;-59
2021/06/12 07:19:11;;;;;;;8.90;8.20;;;;;;;;;;5061462;28;20189;-59
2021/06/12 07:21:37;;;;;;;8.30;7.70;;;;;;;;;;5064220;28;20241;-59
2021/06/12 07:24:02;;;;;;;7.77;7.27;;;;;;;;;;5063047;28;20175;-58
2021/06/12 07:26:27;;;;;;;7.10;6.60;;;;;;;;;;5065795;28;20226;-58
2021/06/12 07:28:52;;;;;;;8.20;7.63;;;;;;;;;;5057299;28;20180;-59
2021/06/12 07:31:17;;;;;;;9.23;8.63;;;;;;;;;;5061424;28;20178;-59
2021/06/12 07:33:43;;;;;;;8.60;7.70;;;;;;;;;;5056046;28;20221;-58
2021/06/12 07:36:08;;;;;;;8.27;7.77;;;;;;;;;;5060825;28;20188;-57
2021/06/12 07:38:33;;;;;;;8.30;7.50;;;;;;;;;;5059362;28;20178;-58
2021/06/12 07:40:58;;;;;;;7.40;7.00;;;;;;;;;;5061425;28;20653;-57
2021/06/12 07:43:23;;;;;;;7.70;7.20;;;;;;;;;;5065735;28;20186;-58
2021/06/12 07:45:49;;;;;;;8.60;7.90;;;;;;;;;;5063726;28;20286;-57
2021/06/12 07:48:14;;;;;;;8.10;7.60;;;;;;;;;;5065173;28;20175;-58
2021/06/12 07:50:39;;;;;;;8.20;7.57;;;;;;;;;;5063660;28;20534;-57
2021/06/12 07:53:05;;;;;;;9.03;8.23;;;;;;;;;;5061756;28;20805;-57
2021/06/12 07:55:30;;;;;;;7.80;7.20;;;;;;;;;;5060916;28;20179;-57
2021/06/12 07:57:58;;;;;;;9.23;8.53;;;;;;;;;;5065304;28;20185;-58
2021/06/12 08:00:23;;;;;;;8.00;7.30;;;;;;;;;;5064235;28;20659;-58
2021/06/12 08:02:48;;;;;;;9.17;8.27;;;;;;;;;;5063630;28;20887;-58
2021/06/12 08:05:14;;;;;;;8.90;8.20;;;;;;;;;;5063681;28;20261;-58
2021/06/12 08:07:39;;;;;;;10.00;9.07;;;;;;;;;;5063366;28;20703;-57
2021/06/12 08:10:04;;;;;;;8.00;7.50;;;;;;;;;;5059032;28;20218;-57
2021/06/12 08:12:30;;;;;;;11.87;11.00;;;;;;;;;;5051983;28;20242;-58
2021/06/12 08:14:55;;;;;;;11.50;10.70;;;;;;;;;;5055903;28;20170;-58
2021/06/12 08:17:20;;;;;;;11.53;10.73;;;;;;;;;;5059552;28;20171;-60
2021/06/12 08:19:45;;;;;;;11.87;10.83;;;;;;;;;;5063428;28;20548;-59
2021/06/12 08:22:12;;;;;;;12.53;11.60;;;;;;;;;;5064844;28;20183;-59
2021/06/12 08:24:37;;;;;;;10.50;9.67;;;;;;;;;;5061890;28;20235;-58
2021/06/12 08:27:03;;;;;;;11.63;10.60;;;;;;;;;;5056266;28;21489;-58
2021/06/12 08:29:28;;;;;;;10.97;10.20;;;;;;;;;;5049130;28;20248;-57
2021/06/12 08:31:53;;;;;;;11.35;10.55;;;;;;;;;;5063401;28;20182;-58
2021/06/12 08:34:18;;;;;;;12.00;11.10;;;;;;;;;;5065120;28;20174;-58
2021/06/12 08:36:44;;;;;;;11.30;10.40;;;;;;;;;;5064005;28;20632;-59
2021/06/12 08:39:09;;;;;;;11.73;10.93;;;;;;;;;;5059810;28;20213;-58
2021/06/12 08:41:34;;;;;;;12.83;11.83;;;;;;;;;;5060566;28;20171;-58
2021/06/12 08:44:00;;;;;;;12.00;11.10;;;;;;;;;;5064722;28;20181;-58
2021/06/12 08:46:26;;;;;;;12.10;11.17;;;;;;;;;;5063678;28;20169;-58
2021/06/12 08:48:51;;;;;;;12.63;11.63;;;;;;;;;;5053851;28;20944;-57
2021/06/12 08:51:16;;;;;;;13.53;12.40;;;;;;;;;;5060427;28;20609;-58
2021/06/12 08:53:41;;;;;;;12.65;11.50;;;;;;;;;;5060283;28;20686;-58
2021/06/12 08:56:06;;;;;;;12.43;11.43;;;;;;;;;;5064364;28;20651;-57
2021/06/12 08:58:31;;;;;;;12.43;11.48;;;;;;;;;;5065099;28;20182;-58
2021/06/12 09:00:57;;;;;;;11.30;10.48;;;;;;;;;;5062569;28;20649;-58
2021/06/12 09:03:22;;;;;;;11.40;10.50;;;;;;;;;;5060861;28;20254;-58
2021/06/12 09:05:48;;;;;;;10.40;9.60;;;;;;;;;;5057555;28;20190;-58
2021/06/12 09:08:14;;;;;;;11.93;10.83;;;;;;;;;;5064332;28;20180;-59
2021/06/12 09:10:45;;;;;;;11.17;10.27;;;;;;;;;;5059431;28;20865;-58
2021/06/12 09:13:11;;;;;;;10.33;9.43;;;;;;;;;;5061143;28;20210;-58
2021/06/12 09:15:36;;;;;;;11.90;10.83;;;;;;;;;;5058931;28;21425;-58
2021/06/12 09:18:01;;;;;;;10.27;9.47;;;;;;;;;;5063830;28;20178;-58
2021/06/12 09:20:26;;;;;;;14.13;11.57;;;;;;;;;;5063016;28;20177;-58
2021/06/12 09:23:12;;;;;;;10.05;9.15;;;;;;;;;;5059056;28;20183;-58
2021/06/12 09:25:39;;;;;;;9.70;9.00;;;;;;;;;;5052893;28;20191;-58
2021/06/12 09:28:04;;;;;;;10.37;9.37;;;;;;;;;;5057857;28;20597;-59
2021/06/12 09:30:29;;;;;;;8.80;8.10;;;;;;;;;;5062215;28;20598;-58
2021/06/12 09:32:54;;;;;;;9.97;9.13;;;;;;;;;;5062356;28;20241;-58
2021/06/12 09:35:28;;;;;;;11.88;10.93;;;;;;;;;;5064150;28;20169;-58
2021/06/12 09:37:53;;;;;;;9.60;8.80;;;;;;;;;;5061902;28;20251;-58
2021/06/12 09:40:21;;;;;;;8.90;8.20;;;;;;;;;;5058393;28;20594;-58
2021/06/12 09:42:46;;;;;;;8.37;7.77;;;;;;;;;;5059872;28;20179;-58
2021/06/12 09:45:12;;;;;;;8.30;7.60;;;;;;;;;;5059813;28;20571;-58
2021/06/12 09:47:38;;;;;;;8.60;7.90;;;;;;;;;;5062165;28;20175;-57
2021/06/12 09:50:04;;;;;;;9.67;8.87;;;;;;;;;;5060594;28;20574;-58
2021/06/12 09:52:39;;;;;;;9.37;8.37;;;;;;;;;;5063149;28;20419;-59
2021/06/12 09:55:05;;;;;;;8.57;7.87;;;;;;;;;;5057668;28;20576;-57
2021/06/12 09:57:30;;;;;;;7.80;7.10;;;;;;;;;;5057608;28;20559;-58
2021/06/12 09:59:56;;;;;;;7.40;6.80;;;;;;;;;;5061208;28;20234;-57
2021/06/12 10:02:45;;;;;;;9.40;7.47;;;;;;;;;;5063237;28;20181;-58
2021/06/12 10:05:12;;;;;;;8.97;8.27;;;;;;;;;;5063034;28;20666;-57
2021/06/12 10:07:38;;;;;;;7.60;7.10;;;;;;;;;;5063451;28;21165;-58
2021/06/12 10:10:05;;;;;;;6.90;6.40;;;;;;;;;;5057504;28;20607;-58
2021/06/12 10:12:30;;;;;;;9.83;9.13;;;;;;;;;;5057171;28;20209;-58
2021/06/12 10:14:57;;;;;;;9.00;8.30;;;;;;;;;;5057773;28;20984;-58
2021/06/12 10:17:22;;;;;;;9.17;8.47;;;;;;;;;;5063908;28;20182;-58
2021/06/12 10:19:50;;;;;;;8.97;8.30;;;;;;;;;;5062506;28;21136;-58
2021/06/12 10:22:15;;;;;;;10.97;10.07;;;;;;;;;;5058523;28;20209;-58
2021/06/12 10:24:40;;;;;;;8.77;8.07;;;;;;;;;;5043082;28;20630;-58
2021/06/12 10:27:06;;;;;;;9.63;8.93;;;;;;;;;;5057052;28;20186;-58
2021/06/12 10:29:32;;;;;;;9.67;9.07;;;;;;;;;;5062098;28;20179;-58
2021/06/12 10:31:58;;;;;;;8.97;8.17;;;;;;;;;;5067285;28;20185;-58
2021/06/12 10:34:27;;;;;;;10.23;9.43;;;;;;;;;;5062000;28;20193;-59
2021/06/12 10:36:56;;;;;;;9.93;9.23;;;;;;;;;;5060998;28;20663;-56
2021/06/12 10:39:25;;;;;;;8.53;7.93;;;;;;;;;;5076987;28;20628;-57
2021/06/12 10:42:08;;;;;;;9.57;8.73;;;;;;;;;;5062772;28;20560;-57
2021/06/12 10:44:33;;;;;;;9.60;8.80;;;;;;;;;;5043439;28;20630;-57
2021/06/12 10:46:58;;;;;;;9.68;8.82;;;;;;;;;;5063913;28;20608;-57
2021/06/12 10:49:27;;;;;;;9.27;8.60;;;;;;;;;;5065172;28;20167;-58
2021/06/12 10:51:52;;;;;;;8.73;8.10;;;;;;;;;;5066011;28;20218;-58
2021/06/12 10:54:22;;;;;;;10.33;9.63;;;;;;;;;;5068990;28;21157;-58
2021/06/12 10:57:14;;;;;;;9.70;8.90;;;;;;;;;;5081623;28;20166;-58
2021/06/12 10:59:40;;;;;;;9.40;8.70;;;;;;;;;;5066879;28;20583;-58
2021/06/12 11:02:19;;;;;;;10.77;9.87;;;;;;;;;;5060644;28;21128;-58
2021/06/12 11:04:50;;;;;;;10.30;9.50;;;;;;;;;;5069198;28;20602;-58
2021/06/12 11:07:23;;;;;;;9.80;9.10;;;;;;;;;;5077638;28;20567;-58
2021/06/12 11:09:48;;;;;;;9.93;9.00;;;;;;;;;;5055340;28;21242;-58
2021/06/12 11:12:13;;;;;;;11.07;9.95;;;;;;;;;;5059300;28;20595;-58
2021/06/12 11:14:39;;;;;;;11.55;10.45;;;;;;;;;;5060805;28;20193;-58
2021/06/12 11:17:04;;;;;;;10.83;9.83;;;;;;;;;;5056720;28;20294;-58
2021/06/12 11:19:30;;;;;;;9.57;8.80;;;;;;;;;;5052152;28;20173;-58
2021/06/12 11:22:14;;;;;;;9.00;8.20;;;;;;;;;;5058437;28;20196;-57
2021/06/12 11:24:39;;;;;;;10.27;9.47;;;;;;;;;;5057228;28;20602;-58
2021/06/12 11:27:04;;;;;;;8.53;7.93;;;;;;;;;;5055198;28;20640;-58
2021/06/12 11:29:30;;;;;;;9.63;8.90;;;;;;;;;;5058454;28;20179;-59
2021/06/12 11:31:55;;;;;;;10.90;10.00;;;;;;;;;;5056902;28;20183;-59
2021/06/12 11:34:21;;;;;;;10.48;9.45;;;;;;;;;;5057231;28;20595;-59
2021/06/12 11:36:52;;;;;;;9.50;8.70;;;;;;;;;;5059531;28;20175;-58
2021/06/12 11:39:17;;;;;;;9.77;8.87;;;;;;;;;;5056233;28;20571;-58
2021/06/12 11:41:42;;;;;;;10.73;9.83;;;;;;;;;;5054823;28;20571;-59
2021/06/12 11:44:08;;;;;;;8.43;7.83;;;;;;;;;;5055177;28;20232;-59
2021/06/12 11:46:43;;;;;;;11.10;10.00;;;;;;;;;;5058336;28;20203;-59
2021/06/12 11:49:08;;;;;;;10.43;9.73;;;;;;;;;;5059505;28;20799;-59
2021/06/12 11:51:35;;;;;;;11.07;10.10;;;;;;;;;;5066778;28;20681;-58
2021/06/12 11:54:04;;;;;;;10.67;9.70;;;;;;;;;;5065399;28;20290;-58
2021/06/12 11:56:34;;;;;;;11.17;9.97;;;;;;;;;;5066972;28;20597;-58
2021/06/12 11:59:00;;;;;;;11.67;10.77;;;;;;;;;;5065488;28;20610;-58
2021/06/12 12:01:33;;;;;;;11.63;10.60;;;;;;;;;;5057676;28;21151;-58
2021/06/12 12:04:02;;;;;;;11.03;10.23;;;;;;;;;;5056902;28;20202;-58
2021/06/12 12:06:27;;;;;;;12.40;11.27;;;;;;;;;;5064073;28;20619;-58
2021/06/12 12:08:53;;;;;;;11.10;10.25;;;;;;;;;;5051231;28;21154;-58
2021/06/12 12:11:19;;;;;;;10.70;9.83;;;;;;;;;;5057776;28;20330;-58
2021/06/12 12:13:44;;;;;;;9.93;9.23;;;;;;;;;;5064836;28;20206;-58
2021/06/12 12:16:22;;;;;;;9.90;8.93;;;;;;;;;;5058916;28;20600;-58
2021/06/12 12:18:49;;;;;;;9.70;9.00;;;;;;;;;;5061816;28;20184;-57
2021/06/12 12:21:26;;;;;;;10.50;9.50;;;;;;;;;;5048735;28;20691;-57
2021/06/12 12:23:54;;;;;;;9.43;8.63;;;;;;;;;;5064808;28;20577;-57
2021/06/12 12:26:21;;;;;;;9.90;9.20;;;;;;;;;;5063488;28;20588;-58
2021/06/12 12:29:08;;;;;;;9.13;8.50;;;;;;;;;;5061656;28;20602;-58
2021/06/12 12:31:39;;;;;;;8.90;8.30;;;;;;;;;;5066359;28;21356;-57
2021/06/12 12:34:05;;;;;;;8.90;8.20;;;;;;;;;;5069245;28;20646;-57
2021/06/12 12:36:30;;;;;;;8.63;7.90;;;;;;;;;;5069431;28;20547;-57
2021/06/12 12:38:56;;;;;;;8.90;8.30;;;;;;;;;;5068949;28;20190;-57
2021/06/12 12:41:21;;;;;;;9.30;8.32;;;;;;;;;;5061823;28;21218;-57
2021/06/12 12:43:46;;;;;;;8.50;7.90;;;;;;;;;;5060170;28;20263;-57
2021/06/12 12:46:11;;;;;;;7.47;6.87;;;;;;;;;;5061940;28;20264;-57
2021/06/12 12:48:39;;;;;;;7.87;7.17;;;;;;;;;;5066976;28;20187;-58
2021/06/12 12:51:04;;;;;;;8.13;7.53;;;;;;;;;;5062996;28;20173;-57
2021/06/12 12:53:41;;;;;;;7.20;6.70;;;;;;;;;;5063657;28;20704;-57
2021/06/12 12:56:08;;;;;;;5.83;5.33;;;;;;;;;;5060201;28;20172;-57
2021/06/12 12:58:35;;;;;;;6.07;5.57;;;;;;;;;;5061977;28;21497;-58
2021/06/12 13:01:10;;;;;;;7.00;4.47;;;;;;;;;;5062177;28;20604;-58
2021/06/12 13:03:46;;;;;;;5.80;4.47;;;;;;;;;;5063682;28;21197;-57
2021/06/12 13:06:29;;;;;;;5.53;4.80;;;;;;;;;;5061694;28;21144;-58
2021/06/12 13:09:10;;;;;;;6.00;4.60;;;;;;;;;;5060477;28;20585;-57
2021/06/12 13:11:46;;;;;;;6.00;5.37;;;;;;;;;;5060724;28;20644;-57
2021/06/12 13:14:22;;;;;;;5.77;5.27;;;;;;;;;;5061345;28;20643;-58
2021/06/12 13:17:01;;;;;;;6.37;5.80;;;;;;;;;;5067136;28;20593;-58
2021/06/12 13:19:29;;;;;;;6.13;5.53;;;;;;;;;;5067006;28;20571;-58
2021/06/12 13:21:54;;;;;;;5.50;5.10;;;;;;;;;;5067980;28;20606;-57
2021/06/12 13:24:20;;;;;;;5.60;5.20;;;;;;;;;;5066765;28;20585;-57
2021/06/12 13:26:45;;;;;;;9.73;6.27;;;;;;;;;;5065271;28;20193;-57
2021/06/12 13:29:17;;;;;;;4.90;4.60;;;;;;;;;;5065650;28;20180;-57
2021/06/12 13:31:46;;;;;;;4.97;4.60;;;;;;;;;;5066981;28;20178;-57
2021/06/12 13:34:21;;;;;;;5.00;4.70;;;;;;;;;;5066725;28;20643;-58
2021/06/12 13:36:50;;;;;;;4.47;4.17;;;;;;;;;;5064760;28;21058;-62
2021/06/12 13:39:26;;;;;;;5.37;4.83;;;;;;;;;;5068612;28;20602;-57
2021/06/12 13:41:51;;;;;;;4.93;4.63;;;;;;;;;;5066564;28;20945;-57
2021/06/12 13:44:16;;;;;;;5.25;4.80;;;;;;;;;;5061325;28;20963;-57
2021/06/12 13:46:41;;;;;;;7.27;5.63;;;;;;;;;;5064920;28;20911;-57
2021/06/12 13:49:07;;;;;;;5.65;5.15;;;;;;;;;;5067450;28;20189;-57
2021/06/12 13:51:32;;;;;;;4.67;4.37;;;;;;;;;;5067257;28;20239;-57
2021/06/12 13:53:58;;;;;;;5.00;4.70;;;;;;;;;;5064537;28;20687;-57
2021/06/12 13:56:26;;;;;;;6.07;5.67;;;;;;;;;;5060303;28;20241;-59
2021/06/12 13:58:52;;;;;;;5.47;5.10;;;;;;;;;;5067159;28;20603;-58
2021/06/12 14:01:17;;;;;;;5.30;4.97;;;;;;;;;;5066936;28;20591;-56
2021/06/12 14:03:43;;;;;;;6.03;5.63;;;;;;;;;;5064057;28;20323;-56
2021/06/12 14:06:09;;;;;;;5.57;5.17;;;;;;;;;;5062078;28;20295;-56
2021/06/12 14:08:34;;;;;;;5.93;5.43;;;;;;;;;;5065590;28;20271;-58
2021/06/12 14:11:00;;;;;;;6.10;5.70;;;;;;;;;;5064207;28;20681;-59
2021/06/12 14:13:25;;;;;;;6.70;6.10;;;;;;;;;;5062152;28;20200;-57
2021/06/12 14:15:51;;;;;;;6.25;5.85;;;;;;;;;;5063709;28;20180;-57
2021/06/12 14:18:16;;;;;;;6.87;6.27;;;;;;;;;;5066576;28;20183;-57
2021/06/12 14:20:41;;;;;;;6.10;5.67;;;;;;;;;;5067329;28;20187;-58
2021/06/12 14:23:06;;;;;;;7.40;6.77;;;;;;;;;;5065982;28;20183;-56
2021/06/12 14:25:34;;;;;;;6.90;6.30;;;;;;;;;;5061489;28;20198;-57